Time;durP1;ratioP1;P1;durP2;ratioP2;P2;SDS_P1;SDS_P2;PMS_P1;PMS_P2;Temp;Humidity;BMP_temperature;BMP_pressure;BME280_temperature;BME280_humidity;BME280_pressure;Samples;Min_cycle;Max_cycle;Signal;HPM_P1;HPM_P2
2022/06/14 00:01:22;;;;;;;6.70;5.72;;;;;;;;;;5016171;28;20472;-73
2022/06/14 00:03:48;;;;;;;6.38;5.78;;;;;;;;;;5016444;28;20081;-73
2022/06/14 00:06:16;;;;;;;7.53;5.25;;;;;;;;;;5016124;28;20053;-73
2022/06/14 00:08:42;;;;;;;7.63;5.63;;;;;;;;;;4998511;28;20021;-73
2022/06/14 00:14:07;;;;;;;6.22;5.10;;;;;;;;;;5015696;28;20041;-73
2022/06/14 00:16:34;;;;;;;6.35;5.13;;;;;;;;;;5016028;28;20029;-73
2022/06/14 00:19:04;;;;;;;5.93;5.32;;;;;;;;;;5016099;28;20392;-73
2022/06/14 00:21:30;;;;;;;7.25;5.13;;;;;;;;;;5015927;28;20491;-73
2022/06/14 00:23:56;;;;;;;7.65;5.50;;;;;;;;;;5016156;28;20065;-73
2022/06/14 00:26:23;;;;;;;5.68;4.80;;;;;;;;;;5015820;28;20033;-73
2022/06/14 00:28:49;;;;;;;5.78;5.18;;;;;;;;;;5015966;28;20021;-73
2022/06/14 00:31:17;;;;;;;6.07;5.10;;;;;;;;;;4998096;28;20040;-73
2022/06/14 00:33:44;;;;;;;5.97;5.35;;;;;;;;;;5015618;28;20046;-73
2022/06/14 00:36:18;;;;;;;6.00;4.88;;;;;;;;;;5015580;28;20030;-73
2022/06/14 00:38:44;;;;;;;6.70;4.68;;;;;;;;;;5015733;28;20022;-73
2022/06/14 00:41:17;;;;;;;6.10;4.90;;;;;;;;;;5015577;28;20018;-73
2022/06/14 00:43:43;;;;;;;6.18;5.13;;;;;;;;;;5015414;28;20053;-73
2022/06/14 00:46:14;;;;;;;5.85;5.00;;;;;;;;;;5015476;28;20025;-73
2022/06/14 00:48:43;;;;;;;5.65;4.72;;;;;;;;;;5015597;28;20018;-73
2022/06/14 00:51:23;;;;;;;4.72;4.30;;;;;;;;;;5015460;28;20026;-73
2022/06/14 00:54:00;;;;;;;5.10;4.63;;;;;;;;;;5015343;28;20042;-73
2022/06/14 00:56:26;;;;;;;5.07;4.57;;;;;;;;;;5002765;28;20558;-73
2022/06/14 00:58:59;;;;;;;5.13;4.60;;;;;;;;;;5015248;28;20495;-73
2022/06/14 01:01:31;;;;;;;5.25;4.72;;;;;;;;;;5015219;28;20041;-73
2022/06/14 01:03:58;;;;;;;7.03;5.47;;;;;;;;;;5015235;28;20022;-73
2022/06/14 01:06:33;;;;;;;7.68;4.93;;;;;;;;;;5015125;28;20073;-73
2022/06/14 01:08:59;;;;;;;6.18;4.30;;;;;;;;;;5014995;28;20026;-73
2022/06/14 01:11:29;;;;;;;6.30;4.32;;;;;;;;;;5014997;28;20018;-73
2022/06/14 01:13:55;;;;;;;5.50;4.63;;;;;;;;;;5014945;28;20112;-73
2022/06/14 01:16:21;;;;;;;5.82;4.30;;;;;;;;;;5014787;28;20045;-73
2022/06/14 01:18:47;;;;;;;7.20;4.75;;;;;;;;;;5015360;28;20033;-73
2022/06/14 01:21:15;;;;;;;4.43;4.03;;;;;;;;;;5014715;28;20030;-73
2022/06/14 01:23:41;;;;;;;7.93;4.22;;;;;;;;;;4997286;28;20038;-73
2022/06/14 01:26:18;;;;;;;8.35;4.50;;;;;;;;;;5014731;28;20092;-73
2022/06/14 01:28:47;;;;;;;4.57;4.10;;;;;;;;;;5015032;28;20384;-73
2022/06/14 01:31:14;;;;;;;5.18;4.20;;;;;;;;;;5014908;28;20377;-73
2022/06/14 01:33:44;;;;;;;6.10;4.45;;;;;;;;;;5014264;28;20089;-72
2022/06/14 01:36:13;;;;;;;7.82;4.55;;;;;;;;;;5014502;28;20034;-73
2022/06/14 01:38:40;;;;;;;6.05;4.93;;;;;;;;;;5014600;28;20435;-73
2022/06/14 01:41:09;;;;;;;8.93;5.65;;;;;;;;;;5014537;28;20104;-73
2022/06/14 01:43:38;;;;;;;6.00;4.38;;;;;;;;;;5014462;28;20026;-73
2022/06/14 01:46:24;;;;;;;13.90;4.88;;;;;;;;;;5014375;28;20022;-73
2022/06/14 01:51:50;;;;;;;6.65;3.90;;;;;;;;;;5014108;28;20029;-73
2022/06/14 01:51:53;;;;;;;5.50;4.03;;;;;;;;;;5014184;28;20033;-74
2022/06/14 01:54:22;;;;;;;5.95;4.18;;;;;;;;;;5014489;28;20043;-73
2022/06/14 01:56:55;;;;;;;4.68;3.95;;;;;;;;;;5014476;28;20392;-73
2022/06/14 01:59:29;;;;;;;5.25;3.15;;;;;;;;;;5013894;28;20018;-73
2022/06/14 02:01:59;;;;;;;6.10;3.30;;;;;;;;;;5014032;28;20024;-73
2022/06/14 02:04:39;;;;;;;3.83;3.05;;;;;;;;;;5014188;28;20041;-73
2022/06/14 02:07:08;;;;;;;3.38;2.90;;;;;;;;;;5014035;28;20022;-73
2022/06/14 02:09:37;;;;;;;3.58;2.92;;;;;;;;;;5013894;28;20025;-73
2022/06/14 02:12:04;;;;;;;3.78;3.03;;;;;;;;;;5014080;28;20080;-73
2022/06/14 02:14:43;;;;;;;3.63;3.00;;;;;;;;;;5013775;28;20365;-73
2022/06/14 02:17:21;;;;;;;4.13;3.03;;;;;;;;;;5013628;28;20022;-73
2022/06/14 02:19:53;;;;;;;4.57;3.40;;;;;;;;;;5013382;28;20040;-73
2022/06/14 02:22:20;;;;;;;6.43;3.47;;;;;;;;;;5013594;28;20022;-72
2022/06/14 02:24:55;;;;;;;5.43;3.42;;;;;;;;;;5013466;28;20021;-72
2022/06/14 02:27:26;;;;;;;3.72;2.80;;;;;;;;;;5013655;28;20365;-72
2022/06/14 02:29:54;;;;;;;3.58;3.00;;;;;;;;;;5013569;28;20040;-72
2022/06/14 02:32:23;;;;;;;5.15;2.95;;;;;;;;;;5013458;28;20034;-72
2022/06/14 02:34:56;;;;;;;4.90;2.90;;;;;;;;;;5012533;28;20057;-72
2022/06/14 02:37:32;;;;;;;3.40;2.80;;;;;;;;;;5012581;28;20018;-72
2022/06/14 02:40:05;;;;;;;4.38;3.08;;;;;;;;;;5012597;28;20463;-72
2022/06/14 02:42:33;;;;;;;7.85;3.30;;;;;;;;;;5012526;28;20101;-72
2022/06/14 02:45:03;;;;;;;6.22;3.45;;;;;;;;;;5012639;28;20026;-72
2022/06/14 02:47:41;;;;;;;5.75;3.42;;;;;;;;;;5012558;28;20029;-72
2022/06/14 02:50:10;;;;;;;6.88;3.80;;;;;;;;;;5012512;28;20061;-72
2022/06/14 02:52:42;;;;;;;5.13;3.13;;;;;;;;;;5012426;28;20033;-72
2022/06/14 02:55:14;;;;;;;7.18;3.25;;;;;;;;;;5012295;28;20068;-72
2022/06/14 02:57:55;;;;;;;3.35;3.05;;;;;;;;;;5012356;28;20503;-72
2022/06/14 03:00:51;;;;;;;3.97;3.20;;;;;;;;;;5012603;28;20097;-72
2022/06/14 03:03:22;;;;;;;8.00;4.03;;;;;;;;;;4995779;28;20034;-72
2022/06/14 03:05:55;;;;;;;3.03;2.72;;;;;;;;;;5012163;28;20033;-72
2022/06/14 03:08:24;;;;;;;3.95;2.90;;;;;;;;;;5012377;28;20477;-72
2022/06/14 03:11:08;;;;;;;3.55;2.80;;;;;;;;;;5012111;28;20472;-72
2022/06/14 03:13:34;;;;;;;3.58;2.97;;;;;;;;;;5000759;28;20105;-72
2022/06/14 03:16:13;;;;;;;5.05;2.80;;;;;;;;;;5012157;28;20045;-72
2022/06/14 03:18:59;;;;;;;4.20;3.05;;;;;;;;;;5012159;28;20476;-72
2022/06/14 03:21:48;;;;;;;5.43;3.20;;;;;;;;;;5011878;28;20018;-72
2022/06/14 03:24:35;;;;;;;5.28;3.08;;;;;;;;;;4932449;29;20051;-72
2022/06/14 03:27:01;;;;;;;11.27;3.83;;;;;;;;;;4919896;29;20382;-72
2022/06/14 03:29:40;;;;;;;8.48;3.22;;;;;;;;;;4932592;29;20512;-72
2022/06/14 03:32:12;;;;;;;5.18;3.67;;;;;;;;;;4934186;29;20040;-72
2022/06/14 03:34:50;;;;;;;5.28;3.50;;;;;;;;;;4896232;29;1189294;-72
2022/06/14 03:37:17;;;;;;;6.60;3.17;;;;;;;;;;4921277;29;20031;-72
2022/06/14 03:39:53;;;;;;;6.88;4.13;;;;;;;;;;4937329;29;20068;-73
2022/06/14 03:42:19;;;;;;;7.05;3.55;;;;;;;;;;4936830;29;20446;-72
2022/06/14 03:44:46;;;;;;;5.32;4.22;;;;;;;;;;4937280;29;20435;-72
2022/06/14 03:47:12;;;;;;;8.35;3.70;;;;;;;;;;4936840;28;20114;-71
2022/06/14 03:49:42;;;;;;;5.55;3.30;;;;;;;;;;4937058;29;20092;-72
2022/06/14 03:52:08;;;;;;;7.13;3.30;;;;;;;;;;4937069;29;20394;-72
2022/06/14 03:54:34;;;;;;;6.68;2.97;;;;;;;;;;4936581;29;20379;-72
2022/06/14 03:57:19;;;;;;;5.10;2.95;;;;;;;;;;4936738;29;20027;-72
2022/06/14 03:59:54;;;;;;;4.72;3.15;;;;;;;;;;4936990;29;20111;-72
2022/06/14 04:02:54;;;;;;;5.53;3.25;;;;;;;;;;5013090;28;20527;-72
2022/06/14 04:05:38;;;;;;;6.22;3.83;;;;;;;;;;5007084;28;20038;-72
2022/06/14 04:08:13;;;;;;;5.93;4.40;;;;;;;;;;5016080;28;20018;-72
2022/06/14 04:10:45;;;;;;;6.07;4.35;;;;;;;;;;5016343;28;20038;-72
2022/06/14 04:13:34;;;;;;;6.47;4.88;;;;;;;;;;5015967;28;20431;-71
2022/06/14 04:16:06;;;;;;;5.82;4.22;;;;;;;;;;5016036;28;20030;-72
2022/06/14 04:18:35;;;;;;;6.13;3.92;;;;;;;;;;5015973;28;20460;-72
2022/06/14 04:21:14;;;;;;;6.43;3.70;;;;;;;;;;5016039;28;20030;-72
2022/06/14 04:24:09;;;;;;;8.25;3.60;;;;;;;;;;4998366;28;20061;-72
2022/06/14 04:26:45;;;;;;;4.97;2.92;;;;;;;;;;4936192;29;20039;-72
2022/06/14 04:29:14;;;;;;;3.33;2.55;;;;;;;;;;4936221;29;20446;-72
2022/06/14 04:31:45;;;;;;;6.25;3.05;;;;;;;;;;4919543;29;20102;-72
2022/06/14 04:34:29;;;;;;;21.08;3.95;;;;;;;;;;4935868;29;20541;-72
2022/06/14 04:37:00;;;;;;;4.38;2.70;;;;;;;;;;4935849;29;20055;-72
2022/06/14 04:39:31;;;;;;;7.30;3.47;;;;;;;;;;4936012;29;20397;-72
2022/06/14 04:42:03;;;;;;;8.90;2.88;;;;;;;;;;4935793;29;20024;-72
2022/06/14 04:44:41;;;;;;;7.07;2.67;;;;;;;;;;4935962;29;20127;-72
2022/06/14 04:47:28;;;;;;;10.93;3.20;;;;;;;;;;4935853;29;20063;-72
2022/06/14 04:50:20;;;;;;;13.35;3.42;;;;;;;;;;4935888;29;20091;-72
2022/06/14 04:53:02;;;;;;;27.27;4.22;;;;;;;;;;4933233;29;20084;-72
2022/06/14 04:55:52;;;;;;;7.53;4.03;;;;;;;;;;4935741;29;20040;-72
2022/06/14 04:58:21;;;;;;;7.30;2.85;;;;;;;;;;4917662;29;20047;-73
2022/06/14 05:00:50;;;;;;;27.98;4.63;;;;;;;;;;4935716;29;20031;-72
2022/06/14 05:03:19;;;;;;;5.82;2.67;;;;;;;;;;4986180;28;20029;-72
2022/06/14 05:05:51;;;;;;;10.88;3.58;;;;;;;;;;5015268;28;20030;-72
2022/06/14 05:08:29;;;;;;;5.70;3.33;;;589.30;2176.00;;;;;;5001957;28;20022;-72
2022/06/14 05:11:00;;;;;;;4.57;3.55;;;589.30;2176.00;;;;;;5015074;28;20391;-72
2022/06/14 05:13:32;;;;;;;11.07;5.50;;;589.30;2150.40;;;;;;5015029;28;20034;-72
2022/06/14 05:16:24;;;;;;;6.70;3.33;;;589.20;2150.40;;;;;;5015146;28;20033;-72
2022/06/14 05:19:10;;;;;;;6.20;2.95;;;589.30;2150.40;;;;;;5004535;28;20506;-72
2022/06/14 05:21:46;;;;;;;4.75;2.90;;;589.40;2176.00;;;;;;5014788;28;20538;-72
2022/06/14 05:24:13;;;;;;;11.25;3.63;;;589.50;2150.40;;;;;;5014687;28;20025;-72
2022/06/14 05:27:16;;;;;;;6.55;3.00;;;589.60;2150.40;;;;;;5015083;28;20509;-72
2022/06/14 05:29:54;;;;;;;6.72;3.72;;;614.40;2150.40;;;;;;5014714;28;20021;-73
2022/06/14 05:32:43;;;;;;;14.38;3.20;;;614.40;2150.40;;;;;;5014667;28;20022;-72
2022/06/14 05:35:18;;;;;;;11.57;3.22;;;614.40;2124.80;;;;;;4996756;28;20056;-72
2022/06/14 05:37:54;;;;;;;35.72;12.68;;;614.40;2124.80;;;;;;5001933;28;20472;-72
2022/06/14 05:40:58;;;;;;;15.38;3.78;;;614.40;2124.80;;;;;;5014275;28;20026;-72
2022/06/14 05:43:29;;;;;;;13.27;4.15;;;614.50;2124.80;;;;;;4996839;28;20030;-72
2022/06/14 05:46:15;;;;;;;13.82;3.65;;;614.50;2124.80;;;;;;5014694;28;20018;-72
2022/06/14 05:48:53;;;;;;;10.75;3.67;;;614.50;2124.80;;;;;;5000664;28;20038;-72
2022/06/14 05:51:29;;;;;;;28.80;4.45;;;614.50;2124.80;;;;;;5014424;28;20033;-72
2022/06/14 05:54:15;;;;;;;15.45;3.50;;;614.50;2124.80;;;;;;5013218;28;20034;-72
2022/06/14 05:56:48;;;;;;;11.18;3.58;;;614.50;2124.80;;;;;;5014332;28;20026;-72
2022/06/14 05:59:33;;;;;;;13.82;4.25;;;614.60;2124.80;;;;;;5013969;28;20037;-72
2022/06/14 06:02:12;;;;;;;13.45;3.50;;;614.50;2124.80;;;;;;5013966;28;20026;-72
2022/06/14 06:04:48;;;;;;;10.93;3.22;;;614.70;2124.80;;;;;;5014008;28;20037;-72
2022/06/14 06:07:17;;;;;;;19.65;3.97;;;;;;;;;;5013829;28;20030;-72
2022/06/14 06:09:49;;;;;;;8.88;2.90;;;;;;;;;;5013938;28;20029;-72
2022/06/14 06:12:22;;;;;;;3.65;2.80;;;615.10;2099.20;;;;;;5014007;28;20026;-72
2022/06/14 06:15:00;;;;;;;4.78;3.05;;;;;;;;;;5013689;28;20085;-72
2022/06/14 06:17:26;;;;;;;11.65;3.25;;;;;;;;;;5013881;28;20038;-72
2022/06/14 06:20:13;;;;;;;6.50;3.25;;;;;;;;;;5013978;28;20077;-72
2022/06/14 06:23:12;;;;;;;8.27;3.10;;;;;;;;;;5013745;28;20498;-72
2022/06/14 06:25:42;;;;;;;5.03;2.80;;;;;;;;;;4944175;29;20042;-72
2022/06/14 06:28:08;;;;;;;8.67;2.60;;;;;;;;;;4933834;29;20039;-72
2022/06/14 06:30:49;;;;;;;8.00;3.47;;;;;;;;;;4934270;29;20062;-72
2022/06/14 06:33:16;;;;;;;12.05;3.88;;;;;;;;;;4933707;29;20048;-72
2022/06/14 06:36:03;;;;;;;15.73;3.00;;;;;;;;;;4942000;29;20035;-72
2022/06/14 06:38:41;;;;;;;9.88;3.28;;;;;;;;;;4952758;28;20110;-72
2022/06/14 06:44:17;;;;;;;4.60;2.55;;;;;;;;;;4933807;29;20043;-72
2022/06/14 06:46:46;;;;;;;4.53;3.08;;;;;;;;;;4934082;29;20028;-72
2022/06/14 06:49:13;;;;;;;9.73;2.60;;;;;;;;;;4933495;29;20074;-72
2022/06/14 06:51:48;;;;;;;12.30;3.10;;;;;;;;;;4933796;29;20032;-73
2022/06/14 06:54:22;;;;;;;7.88;3.00;;;;;;;;;;4933486;29;20486;-73
2022/06/14 06:56:51;;;;;;;7.50;2.88;;;;;;;;;;4933632;29;20031;-73
2022/06/14 06:59:23;;;;;;;22.73;4.22;;;;;;;;;;4935893;29;20034;-73
2022/06/14 07:01:51;;;;;;;18.48;3.53;;;;;;;;;;4992555;28;20030;-72
2022/06/14 07:04:17;;;;;;;10.98;3.70;;;;;;;;;;5012828;28;20041;-72
2022/06/14 07:06:44;;;;;;;9.13;3.65;;;;;;;;;;5012966;28;20024;-73
2022/06/14 07:09:18;;;;;;;16.55;3.10;;;;;;;;;;5013450;28;20040;-73
2022/06/14 07:11:46;;;;;;;15.70;4.28;;;;;;;;;;5013351;28;20439;-73
2022/06/14 07:14:15;;;;;;;29.13;11.90;;;;;;;;;;5012814;28;20034;-72
2022/06/14 07:16:46;;;;;;;9.95;3.50;;;;;;;;;;5012902;28;20476;-73
2022/06/14 07:19:23;;;;;;;6.45;3.13;;;;;;;;;;5012894;28;20060;-73
2022/06/14 07:21:55;;;;;;;14.63;4.07;;;;;;;;;;5013094;28;20080;-72
2022/06/14 07:24:25;;;;;;;15.88;3.67;;;;;;;;;;5012789;28;20030;-73
2022/06/14 07:26:53;;;;;;;10.27;3.90;;;;;;;;;;5012512;28;20014;-73
2022/06/14 07:29:23;;;;;;;12.30;3.40;;;;;;;;;;5012749;28;20416;-73
2022/06/14 07:31:53;;;;;;;12.85;3.42;;;;;;;;;;4977190;28;20105;-72
2022/06/14 07:34:19;;;;;;;6.70;2.63;;;;;;;;;;5003724;28;20149;-73
2022/06/14 07:36:52;;;;;;;8.93;3.10;;;;;;;;;;5012749;28;20100;-72
2022/06/14 07:39:31;;;;;;;6.07;2.70;;;;;;;;;;5012668;28;20092;-73
2022/06/14 07:42:23;;;;;;;11.07;3.55;;;;;;;;;;5012586;28;20026;-72
2022/06/14 07:44:55;;;;;;;9.13;3.10;;;;;;;;;;5000711;28;20045;-72
2022/06/14 07:47:21;;;;;;;11.05;3.60;;;;;;;;;;5012515;28;20026;-72
2022/06/14 07:49:47;;;;;;;14.00;4.22;;;;;;;;;;5012760;28;20569;-72
2022/06/14 07:52:32;;;;;;;15.40;4.15;;;;;;;;;;5012395;28;20022;-72
2022/06/14 07:55:02;;;;;;;8.30;3.60;;;;;;;;;;5012583;28;20026;-72
2022/06/14 07:57:29;;;;;;;6.30;4.18;;;;;;;;;;5012550;28;20018;-72
2022/06/14 08:01:07;;;;;;;7.25;2.67;;;;;;;;;;5012765;28;20022;-72
2022/06/14 08:02:49;;;;;;;4.60;2.17;;;;;;;;;;5012497;28;20026;-73
2022/06/14 08:05:22;;;;;;;4.47;2.53;;;614.80;1945.60;;;;;;5022077;23;20094;-79
2022/06/14 08:07:51;;;;;;;7.72;2.53;;;614.80;1945.60;;;;;;5000247;28;20514;-79
2022/06/14 08:10:22;;;;;;;5.80;2.78;;;614.80;1971.20;;;;;;5031805;28;20040;-79
2022/06/14 08:12:58;;;;;;;22.02;3.90;;;;;;;;;;5032079;28;20021;-80
2022/06/14 08:15:26;;;;;;;6.15;2.83;;;;;;;;;;5032074;28;20044;-80
2022/06/14 08:17:53;;;;;;;7.68;2.85;;;;;;;;;;5002134;28;20037;-77
2022/06/14 08:20:27;;;;;;;18.92;4.03;;;;;;;;;;5010453;28;20022;-79
2022/06/14 08:22:55;;;;;;;7.68;4.25;;;;;;;;;;5029257;28;20114;-79
2022/06/14 08:25:24;;;;;;;14.55;3.47;;;;;;;;;;5010625;28;20029;-78
2022/06/14 08:28:10;;;;;;;14.35;3.25;;;;;;;;;;5011751;28;20120;-79
2022/06/14 08:30:38;;;;;;;8.63;3.55;;;;;;;;;;4955376;29;20043;-75
2022/06/14 08:33:08;;;;;;;5.47;4.10;;;;;;;;;;4954930;29;20035;-79
2022/06/14 08:35:49;;;;;;;5.47;2.35;;;;;;;;;;4955275;29;20130;-79
2022/06/14 08:38:18;;;;;;;6.57;2.75;;;;;;;;;;4955101;29;20106;-78
2022/06/14 08:40:44;;;;;;;5.75;2.72;;;;;;;;;;4955051;29;20031;-79
2022/06/14 08:43:12;;;;;;;8.70;4.88;;;;;;;;;;4955235;29;20036;-80
2022/06/14 08:45:46;;;;;;;10.88;3.53;;;640.10;1920.00;;;;;;4955099;29;20513;-78
2022/06/14 08:48:18;;;;;;;9.43;5.88;;;640.10;1920.00;;;;;;4955127;29;20035;-80
2022/06/14 08:51:12;;;;;;;9.38;3.55;;;640.10;1894.40;;;;;;4938945;29;20046;-79
2022/06/14 08:53:57;;;;;;;4.63;2.53;;;;;;;;;;4954762;29;20165;-79
2022/06/14 08:56:23;;;;;;;7.78;3.30;;;;;;;;;;4938589;29;20082;-78
2022/06/14 08:58:52;;;;;;;4.25;2.40;;;;;;;;;;4955000;29;20031;-79
2022/06/14 09:01:37;;;;;;;7.63;2.95;;;;;;;;;;4938238;28;20520;-79
2022/06/14 09:04:41;;;;;;;10.90;3.35;;;;;;;;;;4954591;29;20557;-79
2022/06/14 09:07:22;;;;;;;7.32;3.45;;;;;;;;;;4912818;29;20047;-79
2022/06/14 09:09:51;;;;;;;24.38;3.75;;;;;;;;;;4973048;28;20037;-77
2022/06/14 09:12:18;;;;;;;14.50;3.67;;;;;;;;;;4973884;28;20055;-78
2022/06/14 09:14:48;;;;;;;15.75;4.50;;;;;;;;;;4973772;28;20035;-75
2022/06/14 09:17:33;;;;;;;10.98;2.70;;;;;;;;;;4957633;28;20023;-80
2022/06/14 09:20:04;;;;;;;5.20;2.67;;;;;;;;;;4973740;28;20078;-79
2022/06/14 09:22:30;;;;;;;15.15;3.58;;;;;;;;;;4973645;28;20027;-79
2022/06/14 09:25:14;;;;;;;6.68;3.00;;;;;;;;;;4973591;28;20117;-79
2022/06/14 09:27:59;;;;;;;11.00;3.50;;;;;;;;;;4973766;28;20030;-79
2022/06/14 09:30:34;;;;;;;29.25;5.22;;;;;;;;;;4972528;28;20432;-80
2022/06/14 09:33:15;;;;;;;14.40;4.15;;;;;;;;;;4957123;28;20070;-75
2022/06/14 09:35:59;;;;;;;19.27;3.63;;;;;;;;;;4973511;28;20046;-79
2022/06/14 09:38:31;;;;;;;2.97;2.33;;;;;;;;;;4986167;28;20114;-79
2022/06/14 09:41:00;;;;;;;4.53;2.33;;;;;;;;;;5033783;28;20009;-80
2022/06/14 09:43:36;;;;;;;6.15;3.10;;;;;;;;;;5034157;28;20026;-77
2022/06/14 09:46:08;;;;;;;5.00;2.88;;;;;;;;;;5016483;28;20033;-78
2022/06/14 09:48:52;;;;;;;12.60;2.90;;;;;;;;;;5034121;28;20118;-80
2022/06/14 09:51:37;;;;;;;5.45;2.90;;;;;;;;;;5021275;28;20025;-78
2022/06/14 09:54:03;;;;;;;17.73;3.47;;;;;;;;;;5033775;28;20037;-78
2022/06/14 09:56:38;;;;;;;37.05;9.13;;;;;;;;;;5033693;28;20032;-79
2022/06/14 09:59:17;;;;;;;16.98;5.05;;;;;;;;;;5033912;28;20159;-79
2022/06/14 10:02:01;;;;;;;8.27;2.80;;;;;;;;;;5034032;28;20025;-79
2022/06/14 10:04:41;;;;;;;4.32;2.65;;;;;;;;;;5033444;28;20105;-79
2022/06/14 10:07:10;;;;;;;5.50;3.10;;;;;;;;;;5034003;28;20029;-80
2022/06/14 10:09:58;;;;;;;4.63;3.13;;;;;;;;;;5033589;28;20375;-78
2022/06/14 10:12:25;;;;;;;11.93;3.80;;;;;;;;;;5033645;28;20026;-74
2022/06/14 10:15:09;;;;;;;4.68;2.65;;;;;;;;;;5033485;28;20026;-80
2022/06/14 10:17:54;;;;;;;7.38;2.45;;;;;;;;;;5033883;28;20091;-79
2022/06/14 10:20:34;;;;;;;4.65;2.40;;;;;;;;;;5021461;28;20391;-79
2022/06/14 10:23:06;;;;;;;9.95;3.30;;;;;;;;;;5034005;28;20025;-79
2022/06/14 10:28:11;;;;;;;22.80;4.13;;;;;;;;;;5033364;28;20021;-78
2022/06/14 10:28:48;;;;;;;4.82;2.40;;;;;;;;;;5033182;28;20352;-79
2022/06/14 10:31:18;;;;;;;6.47;3.13;;;;;;;;;;5033441;28;20022;-80
2022/06/14 10:33:50;;;;;;;5.78;3.05;;;;;;;;;;5033258;28;20041;-80
2022/06/14 10:36:38;;;;;;;4.38;2.33;;;;;;;;;;5033165;28;20072;-79
2022/06/14 10:39:10;;;;;;;10.73;3.78;;;;;;;;;;5015498;28;20484;-80
2022/06/14 10:41:40;;;;;;;14.35;3.05;;;;;;;;;;5032765;28;20464;-78
2022/06/14 10:44:13;;;;;;;47.33;6.43;;;;;;;;;;5033148;28;20018;-74
2022/06/14 10:46:50;;;;;;;10.18;3.58;;;;;;;;;;5015379;28;20097;-73
2022/06/14 10:49:45;;;;;;;15.88;3.85;;;;;;;;;;5033151;28;20093;-79
2022/06/14 10:52:11;;;;;;;3.50;2.35;;;;;;;;;;4952909;29;20050;-78
2022/06/14 10:54:40;;;;;;;4.45;2.60;;;;;;;;;;4952739;29;20516;-78
2022/06/14 10:57:06;;;;;;;4.07;2.55;;;;;;;;;;4936635;28;20031;-78
2022/06/14 10:59:49;;;;;;;5.78;2.55;;;;;;;;;;4952650;29;20030;-78
2022/06/14 11:02:30;;;;;;;4.72;3.03;;;;;;;;;;4936201;28;20437;-80
2022/06/14 11:05:18;;;;;;;13.20;3.83;;;;;;;;;;4952636;29;20051;-78
2022/06/14 11:07:47;;;;;;;8.20;3.75;;;;;;;;;;4952532;29;20492;-77
2022/06/14 11:10:23;;;;;;;8.25;3.05;;;;;;;;;;4952695;29;20473;-72
2022/06/14 11:12:55;;;;;;;2.50;2.13;;;;;;;;;;4952457;28;20066;-80
2022/06/14 11:15:24;;;;;;;4.20;2.90;;;;;;;;;;4952656;29;20054;-79
2022/06/14 11:17:56;;;;;;;17.80;5.55;;;;;;;;;;4936479;29;20027;-78
2022/06/14 11:20:28;;;;;;;15.80;4.32;;;;;;;;;;4952638;29;20382;-78
2022/06/14 11:23:00;;;;;;;6.50;3.40;;;;;;;;;;4952542;29;20089;-79
2022/06/14 11:25:45;;;;;;;4.97;2.38;;;;;;;;;;4952548;29;20102;-78
2022/06/14 11:28:26;;;;;;;4.90;2.40;;;;;;;;;;4979524;28;20512;-80
2022/06/14 11:31:11;;;;;;;5.22;3.10;;;;;;;;;;5032511;28;20037;-79
2022/06/14 11:33:56;;;;;;;32.67;6.10;;;;;;;;;;5032557;28;20034;-70
2022/06/14 11:36:35;;;;;;;15.20;3.92;;;;;;;;;;5032552;28;20068;-78
2022/06/14 11:39:10;;;;;;;6.47;3.40;;;;;;;;;;5032322;28;20017;-80
2022/06/14 11:41:47;;;;;;;9.60;4.35;;;;;;;;;;5032349;28;20049;-79
2022/06/14 11:44:23;;;;;;;13.52;4.22;;;;;;;;;;5032411;28;20029;-79
2022/06/14 11:47:07;;;;;;;6.88;4.00;;;;;;;;;;5032565;28;20029;-79
2022/06/14 11:49:53;;;;;;;6.55;3.60;;;;;;;;;;5018961;28;20029;-78
2022/06/14 11:52:19;;;;;;;4.15;2.53;;;;;;;;;;5033243;28;20404;-80
2022/06/14 11:55:11;;;;;;;24.10;4.13;;;;;;;;;;5036240;28;20487;-80
2022/06/14 11:57:50;;;;;;;6.13;2.88;;;;;;;;;;5036295;28;20033;-79
2022/06/14 12:00:23;;;;;;;8.07;3.67;;;;;;;;;;5036131;28;20021;-80
2022/06/14 12:03:28;;;;;;;6.85;2.50;;;;;;;;;;5036135;28;20020;-79
2022/06/14 12:05:54;;;;;;;5.32;3.60;;;;;;;;;;4972857;28;20407;-80
2022/06/14 12:08:31;;;;;;;12.27;4.15;;;;;;;;;;4958920;28;20042;-79
2022/06/14 12:11:15;;;;;;;19.38;4.70;;;;;;;;;;4974888;28;20058;-80
2022/06/14 12:13:56;;;;;;;5.88;2.80;;;;;;;;;;4958629;28;20039;-77
2022/06/14 12:16:22;;;;;;;15.68;4.45;;;;;;;;;;4974811;28;20512;-77
2022/06/14 12:19:09;;;;;;;23.60;4.63;;;;;;;;;;4974856;28;20529;-80
2022/06/14 12:21:53;;;;;;;4.47;2.90;;;;;;;;;;4958333;28;20026;-79
2022/06/14 12:24:22;;;;;;;17.15;4.25;;;;;;;;;;4958687;28;20050;-80
2022/06/14 12:26:48;;;;;;;28.88;4.55;;;;;;;;;;4974431;28;20026;-80
2022/06/14 12:29:29;;;;;;;7.60;3.08;;;;;;;;;;4958173;28;20413;-79
2022/06/14 12:32:01;;;;;;;20.42;4.32;;;;;;;;;;4974708;28;20022;-79
2022/06/14 12:34:36;;;;;;;12.20;3.85;;;;;;;;;;4974395;28;20488;-74
2022/06/14 12:37:02;;;;;;;25.90;4.35;;;;;;;;;;4998185;28;20033;-79
2022/06/14 12:39:31;;;;;;;13.15;4.70;;;;;;;;;;5035357;28;20033;-80
2022/06/14 12:42:02;;;;;;;7.15;3.35;;;;;;;;;;5017277;28;20116;-79
2022/06/14 12:44:28;;;;;;;11.70;3.70;;;;;;;;;;5035337;28;20152;-79
2022/06/14 12:46:55;;;;;;;10.68;4.15;;;;;;;;;;5035594;28;20026;-74
2022/06/14 12:49:24;;;;;;;45.72;5.53;;;;;;;;;;5017286;28;20506;-78
2022/06/14 12:51:56;;;;;;;22.25;5.03;;;;;;;;;;5035237;28;20025;-74
2022/06/14 12:54:21;;;;;;;;;;;;;;;;;;5035243;28;20116;-80
2022/06/14 12:56:47;;;;;;;12.25;4.63;;;;;;;;;;5017084;28;19955;-78
2022/06/14 12:59:26;;;;;;;6.43;4.55;;;;;;;;;;5034903;28;20033;-79
2022/06/14 13:01:58;;;;;;;11.15;4.50;;;;;;;;;;5017314;28;20036;-75
2022/06/14 13:04:28;;;;;;;46.35;8.40;;;;;;;;;;5034408;28;20038;-80
2022/06/14 13:07:00;;;;;;;8.63;3.58;;;;;;;;;;5017165;28;20055;-79
2022/06/14 13:09:45;;;;;;;10.25;4.22;;;;;;;;;;5034715;28;20036;-78
2022/06/14 13:12:20;;;;;;;8.07;3.33;;;;;;;;;;5034758;28;20075;-80
2022/06/14 13:15:04;;;;;;;6.80;4.95;;;;;;;;;;5034596;28;20335;-79
2022/06/14 13:17:39;;;;;;;20.45;4.72;;;;;;;;;;5016960;28;20021;-78
2022/06/14 13:20:15;;;;;;;7.55;3.30;;;;;;;;;;5034643;28;20039;-79
2022/06/14 13:22:47;;;;;;;14.73;3.47;;;;;;;;;;5016769;28;20384;-79
2022/06/14 13:25:32;;;;;;;10.32;3.42;;;;;;;;;;5016747;28;20045;-80
2022/06/14 13:28:17;;;;;;;4.32;2.53;;;;;;;;;;5034249;28;20034;-79
2022/06/14 13:30:52;;;;;;;22.42;4.25;;;;;;;;;;5016670;28;20022;-79
2022/06/14 13:33:37;;;;;;;3.90;2.45;;;;;;;;;;5034081;28;20033;-73
2022/06/14 13:36:03;;;;;;;10.25;3.63;;;;;;;;;;5034082;28;20474;-79
2022/06/14 13:38:42;;;;;;;7.22;3.53;;;;;;;;;;5016439;28;20075;-78
2022/06/14 13:41:14;;;;;;;15.70;3.47;;;;;;;;;;5021317;28;20018;-79
2022/06/14 13:43:46;;;;;;;10.00;3.35;;;;;;;;;;5033999;28;20055;-74
2022/06/14 13:46:21;;;;;;;3.90;2.40;;;;;;;;;;5034331;28;20028;-79
2022/06/14 13:48:52;;;;;;;4.10;2.65;;;;;;;;;;5016348;28;20143;-79
2022/06/14 13:51:18;;;;;;;;;;;;;;;;;;5016761;28;20100;-78
2022/06/14 13:53:49;;;;;;;7.00;3.13;;;;;;;;;;5034024;28;20120;-79
2022/06/14 13:56:19;;;;;;;6.95;3.13;;;;;;;;;;5033988;28;20037;-79
2022/06/14 13:58:58;;;;;;;15.80;3.77;;;;;;;;;;5033873;28;20025;-74
2022/06/14 14:01:31;;;;;;;10.45;3.40;;;;;;;;;;5034087;28;20025;-79
2022/06/14 14:04:03;;;;;;;3.92;2.35;;;;;;;;;;5033698;28;20502;-80
2022/06/14 14:06:32;;;;;;;4.93;3.10;;;;;;;;;;5033689;28;20037;-80
2022/06/14 14:09:16;;;;;;;10.30;3.33;;;;;;;;;;5033889;28;20025;-80
2022/06/14 14:11:51;;;;;;;32.47;5.15;;;;;;;;;;5021162;28;20029;-75
2022/06/14 14:14:30;;;;;;;11.32;3.13;;;;;;;;;;5033234;28;20037;-71
2022/06/14 14:16:59;;;;;;;9.70;3.72;;;;;;;;;;5033573;28;20096;-79
2022/06/14 14:19:34;;;;;;;29.67;5.95;;;;;;;;;;5033563;28;20483;-79
2022/06/14 14:22:09;;;;;;;9.10;2.90;;;;;;;;;;5033986;28;20096;-80
2022/06/14 14:24:43;;;;;;;9.32;3.30;;;;;;;;;;5015891;28;20025;-80
2022/06/14 14:27:12;;;;;;;29.85;5.05;;;;;;;;;;5033513;28;20420;-79
2022/06/14 14:29:44;;;;;;;16.58;3.78;;;;;;;;;;5033680;28;20026;-79
2022/06/14 14:32:14;;;;;;;7.40;3.67;;;;;;;;;;5015714;28;20079;-79
2022/06/14 14:34:43;;;;;;;11.95;3.00;;;;;;;;;;5033344;28;20049;-79
2022/06/14 14:37:38;;;;;;;7.13;3.08;;;;;;;;;;5011995;28;20032;-80
2022/06/14 14:40:05;;;;;;;21.17;3.90;;;;;;;;;;5016263;28;20172;-79
2022/06/14 14:42:31;;;;;;;13.90;4.95;;;;;;;;;;5015398;28;20028;-81
2022/06/14 14:45:04;;;;;;;15.98;4.32;;;;;;;;;;5033306;28;20029;-80
2022/06/14 14:47:30;;;;;;;11.43;4.05;;;;;;;;;;5015249;28;20029;-79
2022/06/14 14:50:02;;;;;;;12.90;4.15;;;;;;;;;;5033031;28;20112;-80
2022/06/14 14:52:32;;;;;;;9.73;3.78;;;;;;;;;;5032869;28;20519;-79
2022/06/14 14:55:18;;;;;;;10.90;3.38;;;;;;;;;;5015197;28;20061;-81
2022/06/14 14:57:51;;;;;;;6.30;3.08;;;;;;;;;;5032946;28;20105;-79
2022/06/14 15:06:12;;;;;;;15.10;3.65;;;;;;;;;;5032884;28;20048;-79
2022/06/14 15:08:38;;;;;;;32.95;5.22;;;;;;;;;;5032741;28;20033;-79
2022/06/14 15:11:19;;;;;;;33.13;5.13;;;;;;;;;;5032658;28;20030;-78
2022/06/14 15:13:51;;;;;;;11.73;3.28;;;;;;;;;;5014851;28;20364;-79
2022/06/14 15:16:18;;;;;;;5.82;3.10;;;;;;;;;;5032802;28;20044;-79
2022/06/14 15:21:37;;;;;;;22.17;4.55;;;;;;;;;;4971826;28;20424;-79
2022/06/14 15:24:09;;;;;;;33.50;5.47;;;;;;;;;;4972044;28;20409;-80